Time;durP1;ratioP1;P1;durP2;ratioP2;P2;SDS_P1;SDS_P2;PMS_P1;PMS_P2;Temp;Humidity;BMP_temperature;BMP_pressure;BME280_temperature;BME280_humidity;BME280_pressure;Samples;Min_cycle;Max_cycle;Signal;HPM_P1;HPM_P2
2021/03/02 00:01:52;;;;;;;44.55;18.17;;;;;;;0.74;100.00;103230.78;6247835;28;20045;-69
2021/03/02 00:04:53;;;;;;;42.83;16.67;;;;;;;0.70;100.00;103241.00;6247979;28;20057;-69
2021/03/02 00:07:55;;;;;;;41.50;17.98;;;;;;;0.64;100.00;103244.31;6247941;28;20053;-69
2021/03/02 00:10:58;;;;;;;39.35;18.60;;;;;;;0.64;100.00;103239.13;6247415;28;20571;-69
2021/03/02 00:13:59;;;;;;;38.15;17.85;;;;;;;0.63;100.00;103239.06;6247952;28;20068;-69
2021/03/02 00:17:03;;;;;;;43.08;19.13;;;;;;;0.64;100.00;103233.97;6247832;28;20100;-69
2021/03/02 00:20:07;;;;;;;45.83;18.02;;;;;;;0.58;100.00;103244.13;6247928;28;20053;-69
2021/03/02 00:23:15;;;;;;;45.78;18.17;;;;;;;0.53;100.00;103253.47;6247447;28;20053;-69
2021/03/02 00:26:18;;;;;;;45.28;18.77;;;;;;;0.49;100.00;103251.63;6224071;28;20050;-70
2021/03/02 00:29:20;;;;;;;42.22;18.73;;;;;;;0.51;100.00;103242.22;6223274;28;20141;-70
2021/03/02 00:32:22;;;;;;;42.28;18.90;;;;;;;0.49;100.00;103241.25;6223686;28;20056;-69
2021/03/02 00:35:23;;;;;;;42.17;17.73;;;;;;;0.44;100.00;103237.69;6222965;28;20053;-69
2021/03/02 00:38:25;;;;;;;45.25;19.70;;;;;;;0.44;100.00;103235.97;6222778;28;20053;-69
2021/03/02 00:41:26;;;;;;;44.20;19.05;;;;;;;0.48;100.00;103242.97;6222334;28;20445;-69
2021/03/02 00:44:26;;;;;;;41.92;18.33;;;;;;;0.45;100.00;103235.13;6222610;28;20085;-70
2021/03/02 00:47:27;;;;;;;44.58;17.95;;;;;;;0.41;100.00;103230.72;6222658;28;20092;-69
2021/03/02 00:50:29;;;;;;;42.95;17.95;;;;;;;0.41;100.00;103235.91;6222479;28;20108;-69
2021/03/02 00:53:31;;;;;;;44.90;19.25;;;;;;;0.37;100.00;103226.28;6222516;28;20057;-69
2021/03/02 00:56:31;;;;;;;39.67;18.08;;;;;;;0.30;100.00;103233.81;6223630;28;20049;-69
2021/03/02 00:59:32;;;;;;;40.05;18.10;;;;;;;0.23;100.00;103225.91;6222395;28;20418;-70
2021/03/02 01:02:33;;;;;;;43.45;17.67;;;;;;;0.23;100.00;103225.03;6222096;28;20042;-69
2021/03/02 01:05:34;;;;;;;42.72;18.90;;;;;;;0.22;100.00;103229.28;6222284;28;20053;-69
2021/03/02 01:08:36;;;;;;;49.42;19.15;;;;;;;0.27;100.00;103229.41;6222354;28;20050;-69
2021/03/02 01:11:37;;;;;;;46.78;19.83;;;;;;;0.29;100.00;103226.91;6221851;28;20046;-69
2021/03/02 01:14:38;;;;;;;44.78;20.00;;;;;;;0.25;100.00;103225.94;6222465;28;20506;-69
2021/03/02 01:17:39;;;;;;;43.13;17.85;;;;;;;0.21;100.00;103219.78;6222274;28;20132;-69
2021/03/02 01:20:39;;;;;;;46.22;19.65;;;;;;;0.20;100.00;103219.75;6221558;28;20042;-69
2021/03/02 01:23:41;;;;;;;47.78;18.58;;;;;;;0.17;100.00;103220.53;6221830;28;20053;-69
2021/03/02 01:26:42;;;;;;;45.88;20.20;;;;;;;0.16;100.00;103216.19;6223020;28;20093;-69
2021/03/02 01:29:43;;;;;;;48.97;20.08;;;;;;;0.19;100.00;103208.53;6222117;28;20089;-69
2021/03/02 01:32:44;;;;;;;46.92;19.27;;;;;;;0.19;100.00;103199.91;6221570;28;20054;-70
2021/03/02 01:35:45;;;;;;;47.45;19.90;;;;;;;0.22;100.00;103194.81;6222067;28;20057;-69
2021/03/02 01:38:47;;;;;;;42.75;19.95;;;;;;;0.18;100.00;103196.44;6221901;28;20133;-69
2021/03/02 01:41:49;;;;;;;49.00;20.10;;;;;;;0.11;100.00;103197.09;6221587;28;20561;-69
2021/03/02 01:44:50;;;;;;;42.97;18.95;;;;;;;0.07;100.00;103189.19;6221859;28;20137;-69
2021/03/02 01:47:52;;;;;;;49.22;20.17;;;;;;;0.03;100.00;103183.06;6221738;28;20458;-69
2021/03/02 01:50:53;;;;;;;46.47;18.45;;;;;;;-0.01;100.00;103179.50;6221566;28;20053;-69
2021/03/02 01:53:55;;;;;;;45.90;19.38;;;;;;;-0.03;100.00;103185.47;6222048;28;20058;-69
2021/03/02 01:56:56;;;;;;;44.58;19.13;;;;;;;-0.08;100.00;103184.47;6222840;28;20085;-71
2021/03/02 01:59:57;;;;;;;44.83;19.65;;;;;;;-0.10;100.00;103181.81;6221563;28;20046;-71
2021/03/02 02:03:11;;;;;;;49.28;19.73;;;;;;;-0.03;100.00;103183.75;6221430;28;20057;-69
2021/03/02 02:06:16;;;;;;;48.85;20.40;;;;;;;0.02;100.00;103177.84;6221870;28;20494;-68
2021/03/02 02:09:25;;;;;;;48.13;19.83;;;;;;;0.05;100.00;103170.19;6221719;28;20132;-69
2021/03/02 02:12:30;;;;;;;50.30;19.63;;;;;;;-0.05;100.00;103171.59;6221140;28;20053;-69
2021/03/02 02:15:35;;;;;;;44.40;19.27;;;;;;;-0.10;100.00;103165.44;6221951;28;20053;-69
2021/03/02 02:18:38;;;;;;;43.38;20.10;;;;;;;-0.13;100.00;103173.97;6221448;28;20045;-69
2021/03/02 02:21:48;;;;;;;45.78;18.60;;;;;;;-0.22;100.00;103165.94;6221088;28;20046;-69
2021/03/02 02:25:03;;;;;;;48.67;19.98;;;;;;;-0.32;100.00;103171.66;6227660;28;20045;-69
2021/03/02 02:28:07;;;;;;;44.35;18.70;;;;;;;-0.24;100.00;103166.72;6245801;28;20399;-68
2021/03/02 02:31:09;;;;;;;46.78;20.17;;;;;;;-0.29;100.00;103172.63;6245385;28;20049;-69
2021/03/02 02:34:12;;;;;;;60.35;21.63;;;;;;;-0.27;100.00;103176.16;6249690;28;20054;-69
2021/03/02 02:37:17;;;;;;;43.17;18.50;;;;;;;-0.16;100.00;103170.41;6250045;28;20418;-69
2021/03/02 02:40:22;;;;;;;50.25;20.58;;;;;;;-0.12;100.00;103169.69;6250080;28;20057;-69
2021/03/02 02:43:25;;;;;;;56.33;22.02;;;;;;;-0.07;100.00;103179.31;6249620;28;20045;-69
2021/03/02 02:46:26;;;;;;;59.97;22.60;;;;;;;-0.03;100.00;103181.16;6250007;28;20457;-70
2021/03/02 02:49:28;;;;;;;56.15;22.35;;;;;;;0.02;100.00;103175.25;6249880;28;20108;-70
2021/03/02 02:52:30;;;;;;;65.70;21.77;;;;;;;0.02;100.00;103177.84;6249412;28;20521;-70
2021/03/02 02:55:35;;;;;;;123.80;21.88;;;;;;;0.02;100.00;103172.69;6240004;28;20053;-69
2021/03/02 02:58:42;;;;;;;56.78;22.48;;;;;;;0.01;100.00;103181.28;6225148;28;20054;-69
2021/03/02 03:01:45;;;;;;;62.22;20.38;;;;;;;-0.04;100.00;103173.38;6224673;28;20053;-70
2021/03/02 03:04:50;;;;;;;75.55;20.38;;;;;;;-0.05;100.00;103174.19;6248594;28;20056;-69
2021/03/02 03:07:55;;;;;;;76.22;19.15;;;;;;;-0.08;100.00;103179.28;6249476;28;20053;-69
2021/03/02 03:10:58;;;;;;;71.32;21.02;;;;;;;-0.08;100.00;103182.75;6248748;28;20056;-69
2021/03/02 03:14:02;;;;;;;80.53;19.85;;;;;;;-0.13;100.00;103175.69;6249543;28;20068;-69
2021/03/02 03:17:06;;;;;;;62.35;21.80;;;;;;;-0.13;100.00;103179.16;6249226;28;20052;-69
2021/03/02 03:20:10;;;;;;;47.67;19.88;;;;;;;-0.05;100.00;103177.66;6249024;28;20391;-69
2021/03/02 03:23:11;;;;;;;47.30;21.35;;;;;;;-0.07;100.00;103179.31;6248708;28;20490;-70
2021/03/02 03:26:14;;;;;;;57.75;21.90;;;;;;;-0.04;100.00;103181.13;6233666;28;20060;-70
2021/03/02 03:29:18;;;;;;;41.83;18.67;;;;;;;-0.02;100.00;103180.34;6224411;28;20085;-69
2021/03/02 03:32:20;;;;;;;47.65;20.30;;;;;;;-0.08;100.00;103181.88;6223796;28;20544;-69
2021/03/02 03:35:23;;;;;;;45.20;18.58;;;;;;;-0.19;100.00;103185.81;6224227;28;20564;-70
2021/03/02 03:38:24;;;;;;;40.17;18.92;;;;;;;-0.13;100.00;103181.72;6224277;28;20049;-69
2021/03/02 03:41:25;;;;;;;39.60;18.98;;;;;;;-0.16;100.00;103186.81;6241345;28;20049;-69
2021/03/02 03:44:27;;;;;;;40.08;18.75;;;;;;;-0.13;100.00;103186.03;6248247;28;20416;-69
2021/03/02 03:47:28;;;;;;;42.95;18.67;;;;;;;-0.11;100.00;103189.53;6248536;28;20099;-68
2021/03/02 03:50:29;;;;;;;44.85;18.90;;;;;;;-0.12;100.00;103192.94;6248607;28;20049;-69
2021/03/02 03:53:35;;;;;;;41.47;17.55;;;;;;;-0.11;100.00;103189.53;6248331;28;20433;-69
2021/03/02 03:56:36;;;;;;;37.20;17.05;;;;;;;-0.15;100.00;103180.78;6248282;28;20060;-69
2021/03/02 03:59:39;;;;;;;38.22;18.33;;;;;;;-0.20;100.00;103190.13;6246694;28;20041;-69
2021/03/02 04:02:41;;;;;;;35.22;16.83;;;;;;;-0.16;100.00;103191.09;6247641;28;20418;-69
2021/03/02 04:05:42;;;;;;;42.05;18.80;;;;;;;-0.19;100.00;103194.44;6248238;28;20041;-69
2021/03/02 04:08:43;;;;;;;46.45;18.70;;;;;;;-0.30;100.00;103196.72;6247953;28;20521;-69
2021/03/02 04:11:44;;;;;;;40.67;16.95;;;;;;;-0.26;100.00;103195.09;6247732;28;20045;-69
2021/03/02 04:14:46;;;;;;;36.92;18.30;;;;;;;-0.28;100.00;103194.16;6247880;28;20421;-69
2021/03/02 04:17:51;;;;;;;43.00;18.48;;;;;;;-0.29;100.00;103193.28;6247974;28;20104;-69
2021/03/02 04:20:53;;;;;;;49.50;18.92;;;;;;;-0.31;100.00;103194.09;6247304;28;20053;-69
2021/03/02 04:23:54;;;;;;;37.00;17.33;;;;;;;-0.35;100.00;103193.13;6247899;28;20041;-69
2021/03/02 04:26:55;;;;;;;39.50;17.35;;;;;;;-0.13;100.00;103193.78;6246040;28;20114;-69
2021/03/02 04:29:57;;;;;;;39.17;17.27;;;;;;;-0.35;100.00;103182.78;6247415;28;20053;-70
2021/03/02 04:32:58;;;;;;;34.30;16.98;;;;;;;-0.34;100.00;103186.25;6247295;28;20045;-69
2021/03/02 04:35:59;;;;;;;36.55;16.90;;;;;;;-0.32;100.00;103185.47;6247260;28;20057;-69
2021/03/02 04:39:00;;;;;;;36.22;16.50;;;;;;;-0.28;100.00;103178.66;6247627;28;20060;-69
2021/03/02 04:42:01;;;;;;;42.08;16.25;;;;;;;-0.28;100.00;103176.97;6246743;28;20387;-69
2021/03/02 04:45:03;;;;;;;32.83;15.88;;;;;;;-0.33;100.00;103180.22;6247250;28;20060;-69
2021/03/02 04:48:05;;;;;;;30.95;15.05;;;;;;;-0.35;100.00;103180.19;6247039;28;20049;-69
2021/03/02 04:51:06;;;;;;;30.27;15.45;;;;;;;-0.33;100.00;103175.06;6246980;28;20049;-69
2021/03/02 04:54:07;;;;;;;37.38;16.90;;;;;;;-0.41;100.00;103189.44;6243782;28;20053;-69
2021/03/02 04:57:07;;;;;;;37.15;16.70;;;;;;;-0.42;100.00;103186.00;6221959;28;20054;-69
2021/03/02 05:00:11;;;;;;;37.78;16.65;;;;;;;-0.34;100.00;103181.06;6222621;28;20050;-69
2021/03/02 05:03:12;;;;;;;32.55;15.35;;;;;;;-0.29;100.00;103187.25;6221939;28;20046;-69
2021/03/02 05:06:12;;;;;;;31.63;14.60;;;;;;;-0.14;100.00;103176.50;6222575;28;20050;-69
2021/03/02 05:09:13;;;;;;;28.30;13.45;;;;;;;-0.26;100.00;103182.19;6222143;28;20050;-69
2021/03/02 05:12:14;;;;;;;29.45;14.18;;;;;;;-0.36;100.00;103186.19;6221855;28;20136;-69
2021/03/02 05:15:17;;;;;;;31.70;15.90;;;;;;;-0.29;100.00;103180.38;6222112;28;20053;-69
2021/03/02 05:18:17;;;;;;;42.13;14.77;;;;;;;-0.24;100.00;103183.09;6222419;28;20049;-69
2021/03/02 05:21:18;;;;;;;26.40;13.07;;;;;;;-0.16;100.00;103181.63;6221713;28;20042;-69
2021/03/02 05:24:19;;;;;;;25.77;12.75;;;;;;;-0.26;100.00;103182.19;6223179;28;20526;-69
2021/03/02 05:27:20;;;;;;;27.45;12.80;;;;;;;-0.30;100.00;103177.75;6222032;28;20054;-69
2021/03/02 05:30:22;;;;;;;32.25;13.63;;;;;;;-0.27;100.00;103189.06;6221845;28;20050;-69
2021/03/02 05:33:23;;;;;;;45.50;13.98;;;;;;;-0.40;100.00;103184.34;6221950;28;20057;-69
2021/03/02 05:36:24;;;;;;;30.10;14.15;;;;;;;-0.38;100.00;103180.09;6221943;28;20129;-69
2021/03/02 05:39:25;;;;;;;36.05;13.73;;;;;;;-0.38;100.00;103176.63;6222030;28;20053;-69
2021/03/02 05:42:26;;;;;;;30.23;13.82;;;;;;;-0.40;100.00;103173.16;6221529;28;20042;-69
2021/03/02 05:45:28;;;;;;;41.90;14.13;;;;;;;-0.33;100.00;103169.91;6222036;28;20521;-69
2021/03/02 05:48:29;;;;;;;33.35;14.48;;;;;;;-0.39;100.00;103178.34;6221712;28;20387;-70
2021/03/02 05:51:32;;;;;;;29.00;14.18;;;;;;;-0.34;100.00;103179.38;6221709;28;20049;-69
2021/03/02 05:54:33;;;;;;;36.67;13.77;;;;;;;-0.37;100.00;103175.81;6221676;28;20509;-69
2021/03/02 05:57:34;;;;;;;33.13;14.50;;;;;;;-0.29;100.00;103174.34;6245066;28;20053;-68
2021/03/02 06:00:36;;;;;;;33.28;14.98;;;;;;;-0.32;100.00;103181.97;6246044;28;20049;-69
2021/03/02 06:03:38;;;;;;;35.10;14.73;;;;;;;-0.21;100.00;103178.03;6245740;28;20421;-69
2021/03/02 06:06:38;;;;;;;28.10;14.23;;;;;;;-0.21;100.00;103179.75;6246522;28;20089;-69
2021/03/02 06:09:39;;;;;;;30.15;14.18;;;;;;;-0.17;100.00;103179.88;6250750;28;20160;-69
2021/03/02 06:12:51;;;;;;;33.58;14.65;;;;;;;-0.14;100.00;103174.78;6250146;28;20054;-69
2021/03/02 06:15:54;;;;;;;27.23;13.32;;;;;;;-0.04;100.00;103174.25;6250607;28;20056;-69
2021/03/02 06:18:55;;;;;;;31.17;14.00;;;;;;;-0.14;100.00;103176.50;6250562;28;20144;-69
2021/03/02 06:21:56;;;;;;;34.92;14.20;;;;;;;-0.11;100.00;103177.47;6249972;28;20128;-70
2021/03/02 06:24:57;;;;;;;37.67;14.85;;;;;;;-0.02;100.00;103176.88;6250716;28;20081;-69
2021/03/02 06:27:58;;;;;;;41.05;14.65;;;;;;;-0.04;100.00;103173.38;6248727;28;20410;-69
2021/03/02 06:31:00;;;;;;;29.15;13.85;;;;;;;0.04;100.00;103179.63;6250232;28;20049;-69
2021/03/02 06:34:09;;;;;;;25.58;13.13;;;;;;;-0.03;100.00;103173.41;6250436;28;20529;-67
2021/03/02 06:37:10;;;;;;;29.40;13.35;;;;;;;-0.10;100.00;103179.22;6250388;28;20505;-67
2021/03/02 06:40:13;;;;;;;30.75;13.65;;;;;;;-0.11;100.00;103174.88;6249884;28;20060;-67
2021/03/02 06:43:29;;;;;;;33.20;15.10;;;;;;;-0.10;100.00;103176.63;6249682;28;20053;-67
2021/03/02 06:46:40;;;;;;;34.15;14.15;;;;;;;-0.01;100.00;103179.50;6250014;28;20533;-67
2021/03/02 06:49:43;;;;;;;40.42;15.85;;;;;;;0.07;100.00;103181.44;6250139;28;20061;-67
2021/03/02 06:52:44;;;;;;;42.53;16.10;;;;;;;0.09;100.00;103183.25;6249629;28;20046;-67
2021/03/02 06:55:45;;;;;;;38.80;14.85;;;;;;;0.15;100.00;103183.41;6249633;28;20064;-67
2021/03/02 06:58:46;;;;;;;32.75;14.63;;;;;;;0.24;100.00;103188.84;6247963;28;20053;-67
2021/03/02 07:01:48;;;;;;;30.95;13.90;;;;;;;0.31;100.00;103189.00;6248966;28;20085;-67
2021/03/02 07:05:04;;;;;;;40.15;15.10;;;;;;;0.25;100.00;103197.47;6235133;28;20503;-67
2021/03/02 07:08:06;;;;;;;26.13;12.95;;;;;;;0.40;100.00;103200.50;6224590;28;20046;-67
2021/03/02 07:11:08;;;;;;;29.65;12.60;;;;;;;0.29;100.00;103203.63;6224571;28;20064;-68
2021/03/02 07:14:10;;;;;;;28.10;12.93;;;;;;;0.31;100.00;103199.34;6224735;28;20069;-67
2021/03/02 07:17:14;;;;;;;29.60;13.38;;;;;;;0.37;100.00;103204.72;6224388;28;20100;-67
2021/03/02 07:20:17;;;;;;;30.05;13.55;;;;;;;0.39;100.00;103208.22;6224242;28;20545;-67
2021/03/02 07:23:19;;;;;;;32.80;13.13;;;;;;;0.40;100.00;103203.09;6224308;28;20483;-67
2021/03/02 07:26:20;;;;;;;28.48;13.85;;;;;;;0.45;100.00;103204.06;6224494;28;20064;-67
2021/03/02 07:29:21;;;;;;;28.10;13.20;;;;;;;0.53;100.00;103212.06;6247239;28;20460;-67
2021/03/02 07:32:23;;;;;;;29.27;14.38;;;;;;;0.58;100.00;103214.78;6248488;28;20076;-67
2021/03/02 07:35:25;;;;;;;28.30;13.38;;;;;;;0.59;100.00;103206.19;6248756;28;20049;-68
2021/03/02 07:38:26;;;;;;;31.00;13.40;;;;;;;0.53;100.00;103213.78;6248624;28;20123;-66
2021/03/02 07:41:34;;;;;;;29.88;14.25;;;;;;;0.58;100.00;103205.31;6248261;28;20042;-67
2021/03/02 07:45:06;;;;;;;31.10;15.10;;;;;;;0.61;100.00;103209.69;6248415;28;20049;-68
2021/03/02 07:48:24;;;;;;;34.35;14.85;;;;;;;0.74;100.00;103207.50;6248807;28;20045;-67
2021/03/02 07:51:25;;;;;;;50.40;16.50;;;;;;;0.76;100.00;103200.63;6248080;28;20042;-68
2021/03/02 07:54:26;;;;;;;32.92;15.43;;;;;;;0.84;100.00;103207.72;6248204;28;20053;-68
2021/03/02 07:57:27;;;;;;;47.50;14.57;;;;;;;0.97;100.00;103209.81;6232829;28;20050;-68
2021/03/02 08:00:28;;;;;;;34.10;15.10;;;;;;;0.93;100.00;103210.56;6223463;28;20057;-67
2021/03/02 08:03:31;;;;;;;28.00;12.88;;;;;;;0.90;100.00;103213.94;6223456;28;20104;-68
2021/03/02 08:06:33;;;;;;;32.17;15.38;;;;;;;1.00;100.00;103218.53;6223415;28;20112;-67
2021/03/02 08:09:33;;;;;;;33.17;15.50;;;;;;;1.02;100.00;103218.56;6223443;28;20479;-68
2021/03/02 08:12:35;;;;;;;30.40;14.40;;;;;;;1.08;100.00;103218.72;6241109;28;20049;-67
2021/03/02 08:15:39;;;;;;;31.17;14.90;;;;;;;1.26;100.00;103221.75;6239629;28;20049;-68
2021/03/02 08:18:42;;;;;;;28.40;13.65;;;;;;;1.22;100.00;103225.13;6245110;28;20061;-68
2021/03/02 08:21:43;;;;;;;43.63;13.38;;;;;;;1.22;100.00;103225.13;6241981;28;20045;-68
2021/03/02 08:24:51;;;;;;;32.25;14.73;;;;;;;1.22;100.00;103226.84;6247786;28;20133;-68
2021/03/02 08:27:56;;;;;;;31.33;14.30;;;;;;;1.23;100.00;103232.06;6240359;28;20042;-67
2021/03/02 08:30:56;;;;;;;35.20;13.95;;;;;;;1.44;100.00;103231.72;6231238;28;20053;-67
2021/03/02 08:33:59;;;;;;;28.73;13.48;;;;;;;1.38;100.00;103222.94;6245468;28;20053;-67
2021/03/02 08:37:00;;;;;;;32.05;13.48;;;;;;;1.29;100.00;103226.16;6234536;28;20093;-67
2021/03/02 08:40:01;;;;;;;30.27;13.65;;;;;;;1.43;100.00;103237.75;6222993;28;20526;-67
2021/03/02 08:43:04;;;;;;;30.73;13.38;;;;;;;1.42;100.00;103236.00;6222381;28;20050;-67
2021/03/02 08:46:06;;;;;;;33.60;14.70;;;;;;;1.59;100.00;103228.63;6239440;28;20434;-67
2021/03/02 08:49:09;;;;;;;32.17;14.70;;;;;;;1.68;100.00;103228.84;6246836;28;20537;-67
2021/03/02 08:52:10;;;;;;;30.55;14.88;;;;;;;1.83;100.00;103232.63;6246619;28;20438;-67
2021/03/02 08:55:12;;;;;;;32.15;14.13;;;;;;;1.78;100.00;103235.13;6247206;28;20056;-67
2021/03/02 08:58:13;;;;;;;24.83;12.25;;;;;;;2.13;100.00;103225.50;6245128;28;20045;-67
2021/03/02 09:01:16;;;;;;;24.33;11.80;;;;;;;2.03;100.00;103227.03;6245219;28;20046;-67
2021/03/02 09:04:19;;;;;;;26.45;12.82;;;;;;;2.03;100.00;103219.25;6220583;28;20137;-67
2021/03/02 09:07:23;;;;;;;24.77;11.73;;;;;;;2.12;100.00;103226.38;6231005;28;20438;-67
2021/03/02 09:10:24;;;;;;;27.42;12.43;;;;;;;2.16;100.00;103219.53;6244871;28;20049;-68
2021/03/02 09:13:34;;;;;;;28.40;13.45;;;;;;;2.09;100.00;103223.72;6245873;28;20418;-68
2021/03/02 09:16:40;;;;;;;28.92;12.95;;;;;;;2.18;100.00;103225.59;6246476;28;20049;-68
2021/03/02 09:19:42;;;;;;;26.55;13.05;;;;;;;2.29;100.00;103226.72;6246959;28;20505;-67
2021/03/02 09:22:43;;;;;;;28.35;13.55;;;;;;;2.47;100.00;103226.22;6246302;28;20041;-67
2021/03/02 09:25:44;;;;;;;29.50;13.50;;;;;;;2.51;100.00;103217.66;6232625;28;20046;-67
2021/03/02 09:28:49;;;;;;;29.55;12.85;;;;;;;2.65;100.00;103216.22;6239820;28;20054;-68
2021/03/02 09:31:51;;;;;;;26.42;13.10;;;;;;;2.73;100.00;103213.78;6239143;28;20049;-68
2021/03/02 09:34:56;;;;;;;25.92;12.38;;;;;;;2.68;100.00;103215.38;6232946;28;20045;-67
2021/03/02 09:37:57;;;;;;;26.58;12.75;;;;;;;2.63;100.00;103217.00;6235768;28;20045;-67
2021/03/02 09:40:59;;;;;;;29.98;11.88;;;;;;;2.82;100.00;103218.22;6232186;28;20535;-67
2021/03/02 09:44:19;;;;;;;29.70;13.40;;;;;;;2.80;100.00;103218.22;6242461;28;20107;-67
2021/03/02 09:47:26;;;;;;;29.90;12.68;;;;;;;2.96;100.00;103214.19;6239206;28;20096;-67
2021/03/02 09:50:35;;;;;;;30.70;15.13;;;;;;;3.08;100.00;103222.19;6237372;28;20049;-67
2021/03/02 09:53:36;;;;;;;29.95;13.32;;;;;;;3.13;100.00;103215.34;6242216;28;20038;-67
2021/03/02 09:56:37;;;;;;;28.98;13.60;;;;;;;3.19;100.00;103218.06;6249369;28;20049;-67
2021/03/02 09:59:39;;;;;;;27.90;13.88;;;;;;;3.21;100.00;103211.16;6244212;28;20211;-68
2021/03/02 10:02:48;;;;;;;25.65;13.15;;;;;;;3.31;100.00;103215.66;6240124;28;20049;-67
2021/03/02 10:05:55;;;;;;;27.83;13.77;;;;;;;3.45;100.00;103208.09;6237913;28;20049;-68
2021/03/02 10:08:56;;;;;;;29.38;13.60;;;;;;;3.48;100.00;103212.47;6235742;28;20127;-68
2021/03/02 10:12:09;;;;;;;28.10;13.02;;;;;;;3.53;99.84;103206.47;6238448;28;20509;-68
2021/03/02 10:15:22;;;;;;;26.98;13.13;;;;;;;3.53;100.00;103210.81;6242912;28;20049;-68
2021/03/02 10:18:24;;;;;;;27.73;13.43;;;;;;;3.64;99.73;103213.59;6243751;28;20395;-68
2021/03/02 10:21:27;;;;;;;30.58;14.68;;;;;;;3.63;99.52;103209.22;6234927;28;20042;-68
2021/03/02 10:24:30;;;;;;;28.15;13.23;;;;;;;3.81;99.47;103207.78;6235092;28;20041;-68
2021/03/02 10:27:31;;;;;;;34.85;16.27;;;;;;;3.95;100.00;103210.56;6236046;28;20058;-68
2021/03/02 10:30:31;;;;;;;31.85;15.82;;;;;;;4.14;100.00;103205.63;6236218;28;20414;-68
2021/03/02 10:33:32;;;;;;;29.67;13.68;;;;;;;4.24;99.00;103207.47;6236353;28;20042;-68
2021/03/02 10:36:35;;;;;;;30.88;14.52;;;;;;;4.10;98.59;103204.69;6237163;28;20048;-67
2021/03/02 10:39:37;;;;;;;27.40;13.75;;;;;;;4.17;99.76;103206.50;6237024;28;20434;-68
2021/03/02 10:42:38;;;;;;;35.00;16.23;;;;;;;4.24;99.88;103212.69;6235003;28;20512;-69
2021/03/02 10:45:39;;;;;;;60.58;27.27;;;;;;;4.41;99.61;103199.88;6237281;28;20050;-68
2021/03/02 10:48:40;;;;;;;52.42;21.92;;;;;;;4.45;97.82;103204.25;6236912;28;20473;-67
2021/03/02 10:51:42;;;;;;;36.63;16.73;;;;;;;4.36;97.43;103202.44;6234626;28;20165;-68
2021/03/02 10:54:43;;;;;;;30.65;14.05;;;;;;;4.28;97.82;103206.66;6231396;28;20050;-67
2021/03/02 10:57:43;;;;;;;36.42;14.32;;;;;;;4.33;98.50;103205.00;6225500;28;20465;-67
2021/03/02 11:00:44;;;;;;;35.75;15.13;;;;;;;4.39;97.61;103201.56;6224880;28;20499;-67
2021/03/02 11:03:45;;;;;;;48.00;21.27;;;;;;;4.33;98.42;103195.44;6225079;28;20042;-68
2021/03/02 11:06:47;;;;;;;43.53;18.23;;;;;;;4.48;98.97;103192.13;6224960;28;20046;-68
2021/03/02 11:09:49;;;;;;;34.53;15.07;;;;;;;4.62;98.54;103197.50;6225080;28;20045;-68
2021/03/02 11:12:50;;;;;;;39.10;17.92;;;;;;;4.81;97.76;103193.34;6246120;28;20076;-68
2021/03/02 11:15:51;;;;;;;52.25;22.73;;;;;;;4.90;96.39;103187.34;6246167;28;20050;-68
2021/03/02 11:18:51;;;;;;;28.63;14.48;;;;;;;5.08;96.19;103179.72;6237676;28;20576;-68
2021/03/02 11:21:53;;;;;;;32.95;14.88;;;;;;;5.21;97.01;103180.69;6232636;28;20042;-68
2021/03/02 11:24:54;;;;;;;31.50;16.20;;;;;;;5.40;96.28;103171.28;6224722;28;20053;-70
2021/03/02 11:27:55;;;;;;;57.58;23.40;;;;;;;5.81;95.15;103156.78;6236447;28;20061;-70
2021/03/02 11:30:56;;;;;;;39.05;17.13;;;;;;;6.05;92.86;103152.56;6248907;28;20053;-69
2021/03/02 11:33:57;;;;;;;31.40;15.00;;;;;;;6.37;93.90;103146.59;6248844;28;20045;-69
2021/03/02 11:36:58;;;;;;;50.58;18.27;;;;;;;6.51;91.69;103142.25;6234525;28;20050;-70
2021/03/02 11:39:59;;;;;;;32.78;14.85;;;;;;;6.70;90.71;103145.78;6224316;28;20415;-69
2021/03/02 11:43:01;;;;;;;86.15;36.25;;;;;;;6.83;90.61;103151.00;6223719;28;20042;-69
2021/03/02 11:46:03;;;;;;;28.83;15.63;;;;;;;7.14;87.68;103139.69;6224167;28;20050;-69
2021/03/02 11:49:04;;;;;;;53.03;21.65;;;;;;;7.33;87.70;103130.97;6224131;28;20057;-70
2021/03/02 11:52:05;;;;;;;28.95;15.73;;;;;;;7.43;86.87;103129.19;6223747;28;20046;-70
2021/03/02 11:55:07;;;;;;;33.35;17.42;;;;;;;7.66;87.72;103129.13;6236647;28;20426;-69
2021/03/02 11:58:08;;;;;;;28.15;15.60;;;;;;;7.84;86.68;103118.59;6247837;28;20103;-69
2021/03/02 12:01:09;;;;;;;29.45;15.02;;;;;;;8.14;84.56;103109.75;6247902;28;20049;-69
2021/03/02 12:04:10;;;;;;;30.05;15.55;;;;;;;8.30;84.80;103106.16;6248161;28;20488;-69
2021/03/02 12:07:12;;;;;;;28.33;15.05;;;;;;;8.56;83.64;103110.41;6248112;28;20103;-69
2021/03/02 12:10:14;;;;;;;31.35;15.63;;;;;;;8.89;81.99;103107.50;6247958;28;20490;-69
2021/03/02 12:13:15;;;;;;;28.80;15.23;;;;;;;9.16;79.83;103095.03;6242517;28;20045;-70
2021/03/02 12:16:16;;;;;;;30.65;15.75;;;;;;;9.06;79.58;103091.63;6223280;28;20050;-69
2021/03/02 12:19:17;;;;;;;28.42;15.50;;;;;;;9.12;78.23;103085.44;6223548;28;20054;-69
2021/03/02 12:22:18;;;;;;;29.95;14.15;;;;;;;9.48;77.90;103083.34;6222809;28;20141;-69
2021/03/02 12:25:19;;;;;;;27.75;14.23;;;;;;;9.57;78.88;103083.22;6223387;28;20057;-69
2021/03/02 12:28:20;;;;;;;26.63;14.70;;;;;;;9.78;76.95;103076.88;6224387;28;20050;-69
2021/03/02 12:31:21;;;;;;;30.13;14.18;;;;;;;9.96;76.46;103076.63;6222722;28;20502;-69
2021/03/02 12:34:23;;;;;;;23.95;12.90;;;;;;;10.14;75.91;103065.00;6223098;28;20053;-70
2021/03/02 12:37:25;;;;;;;23.60;12.65;;;;;;;10.23;75.03;103064.00;6240746;28;20049;-70
2021/03/02 12:40:25;;;;;;;27.88;13.98;;;;;;;10.77;73.64;103059.66;6247406;28;20057;-70
2021/03/02 12:43:26;;;;;;;25.60;13.65;;;;;;;10.65;75.29;103057.22;6247006;28;20107;-70
2021/03/02 12:46:27;;;;;;;23.02;13.13;;;;;;;10.74;74.48;103051.81;6247494;28;20087;-70
2021/03/02 12:49:28;;;;;;;23.48;12.45;;;;;;;10.98;72.02;103060.16;6247149;28;20063;-70
2021/03/02 12:52:30;;;;;;;20.23;12.63;;;;;;;11.13;72.96;103054.66;6246930;28;20046;-70
2021/03/02 12:55:30;;;;;;;28.80;13.18;;;;;;;10.89;73.32;103048.91;6246246;28;20437;-69
2021/03/02 12:58:31;;;;;;;19.70;11.70;;;;;;;11.18;71.52;103052.78;6247055;28;20127;-69
2021/03/02 13:01:33;;;;;;;24.65;12.48;;;;;;;11.23;73.36;103048.31;6246230;28;20092;-69
2021/03/02 13:04:34;;;;;;;21.60;11.73;;;;;;;11.59;71.66;103038.81;6246770;28;20049;-69
2021/03/02 13:07:36;;;;;;;23.08;12.88;;;;;;;11.64;71.97;103036.94;6246983;28;20140;-69
2021/03/02 13:10:37;;;;;;;32.13;12.35;;;;;;;11.58;70.67;103034.44;6246632;28;20049;-69
2021/03/02 13:13:38;;;;;;;28.65;12.25;;;;;;;11.78;70.37;103031.38;6246800;28;20053;-69
2021/03/02 13:16:39;;;;;;;35.85;12.40;;;;;;;12.23;69.17;103027.78;6246086;28;20068;-70
2021/03/02 13:19:41;;;;;;;19.77;11.35;;;;;;;12.00;69.36;103028.31;6246940;28;20060;-69
2021/03/02 13:22:43;;;;;;;19.92;11.55;;;;;;;11.97;67.94;103028.38;6246129;28;20046;-69
2021/03/02 13:25:44;;;;;;;18.45;11.55;;;;;;;12.19;68.61;103027.84;6246800;28;20053;-69
2021/03/02 13:28:49;;;;;;;22.63;11.98;;;;;;;12.18;69.91;103020.84;6223329;28;20100;-70
2021/03/02 13:31:51;;;;;;;20.48;12.02;;;;;;;12.61;67.47;103006.56;6221880;28;20042;-70
2021/03/02 13:34:52;;;;;;;28.70;13.23;;;;;;;12.37;68.30;103015.13;6227090;28;20041;-70
2021/03/02 13:37:55;;;;;;;22.00;12.10;;;;;;;12.72;66.60;103008.97;6224950;28;20057;-70
2021/03/02 13:40:56;;;;;;;23.70;12.88;;;;;;;12.70;67.61;103008.13;6221647;28;20058;-67
2021/03/02 13:43:59;;;;;;;24.05;12.75;;;;;;;12.83;68.09;103000.75;6222002;28;20050;-69
2021/03/02 13:47:00;;;;;;;22.52;12.80;;;;;;;12.80;66.31;102995.53;6221868;28;20414;-69